createdAt,value
2018-04-23T00:01:57.948Z,17.38
2018-04-23T00:04:28.515Z,17.44
2018-04-23T00:06:57.255Z,17.30
2018-04-23T00:09:25.671Z,17.22
2018-04-23T00:11:54.215Z,17.26
2018-04-23T00:14:22.662Z,17.21
2018-04-23T00:16:51.088Z,17.17
2018-04-23T00:19:19.548Z,17.18
2018-04-23T00:21:48.096Z,17.20
2018-04-23T00:24:16.558Z,17.26
2018-04-23T00:26:47.041Z,17.19
2018-04-23T00:29:17.544Z,17.08
2018-04-23T00:31:45.969Z,17.12
2018-04-23T00:34:16.569Z,17.15
2018-04-23T00:36:45.015Z,17.14
2018-04-23T00:39:13.427Z,17.19
2018-04-23T00:41:46.310Z,17.22
2018-04-23T00:44:16.827Z,17.39
2018-04-23T00:46:45.307Z,17.36
2018-04-23T00:49:13.780Z,17.55
2018-04-23T00:51:42.214Z,17.38
2018-04-23T00:54:10.956Z,17.24
2018-04-23T00:56:39.373Z,17.20
2018-04-23T00:59:07.824Z,17.28
2018-04-23T01:01:36.240Z,17.34
2018-04-23T01:04:08.838Z,17.33
2018-04-23T01:06:37.562Z,17.41
2018-04-23T01:09:05.974Z,17.38
2018-04-23T01:11:34.399Z,17.50
2018-04-23T01:14:04.900Z,17.63
2018-04-23T01:16:33.247Z,17.61
2018-04-23T01:19:01.683Z,17.62
2018-04-23T01:21:30.139Z,17.58
2018-04-23T01:24:00.716Z,17.92
2018-04-23T01:26:29.145Z,17.66
2018-04-23T01:28:57.559Z,17.59
2018-04-23T01:31:26.955Z,17.58
2018-04-23T01:33:55.778Z,17.57
2018-04-23T01:36:24.217Z,17.54
2018-04-23T01:38:52.651Z,17.59
2018-04-23T01:41:21.404Z,17.53
2018-04-23T01:43:49.810Z,17.53
2018-04-23T01:46:20.372Z,17.51
2018-04-23T01:48:48.806Z,17.53
2018-04-23T01:51:17.210Z,17.51
2018-04-23T01:53:47.788Z,17.63
2018-04-23T01:56:16.183Z,17.73
2018-04-23T01:58:46.765Z,17.58
2018-04-23T02:01:15.239Z,17.61
2018-04-23T02:03:43.684Z,17.62
2018-04-23T02:06:14.170Z,17.59
2018-04-23T02:08:42.634Z,17.51
2018-04-23T02:11:11.059Z,17.70
2018-04-23T02:13:39.475Z,17.54
2018-04-23T02:16:10.063Z,17.38
2018-04-23T02:18:38.443Z,17.49
2018-04-23T02:21:08.954Z,17.48
2018-04-23T02:23:37.413Z,17.49
2018-04-23T02:26:05.848Z,17.40
2018-04-23T02:28:36.434Z,17.42
2018-04-23T02:31:04.856Z,17.39
2018-04-23T02:33:33.625Z,17.43
2018-04-23T02:36:02.059Z,17.42
2018-04-23T02:38:30.487Z,17.42
2018-04-23T02:40:58.944Z,17.37
2018-04-23T02:43:27.349Z,17.27
2018-04-23T02:45:55.755Z,17.27
2018-04-23T02:48:24.520Z,17.29
2018-04-23T02:50:52.970Z,17.30
2018-04-23T02:53:21.384Z,17.21
2018-04-23T02:55:49.812Z,17.13
2018-04-23T02:58:18.311Z,17.07
2018-04-23T03:00:46.758Z,17.06
2018-04-23T03:03:15.174Z,17.13
2018-04-23T03:05:45.921Z,17.08
2018-04-23T03:08:14.330Z,17.08
2018-04-23T03:10:42.784Z,17.07
2018-04-23T03:13:11.187Z,17.05
2018-04-23T03:15:39.639Z,16.87
2018-04-23T03:18:10.206Z,16.84
2018-04-23T03:20:39.163Z,16.80
2018-04-23T03:23:09.746Z,16.82
2018-04-23T03:25:38.192Z,16.84
2018-04-23T03:28:09.000Z,16.80
2018-04-23T03:30:37.414Z,16.81
2018-04-23T03:33:05.819Z,16.77
2018-04-23T03:35:35.294Z,16.66
2018-04-23T03:38:03.721Z,16.57
2018-04-23T03:40:32.129Z,16.57
2018-04-23T03:43:00.638Z,16.57
2018-04-23T03:45:29.108Z,16.52
2018-04-23T03:47:57.625Z,16.57
2018-04-23T03:50:28.295Z,16.56
2018-04-23T03:52:58.887Z,16.52
2018-04-23T03:55:27.318Z,16.41
2018-04-23T03:57:55.727Z,16.43
2018-04-23T04:00:24.231Z,16.45
2018-04-23T04:02:52.886Z,16.30
2018-04-23T04:05:23.467Z,16.32
2018-04-23T04:07:51.892Z,16.30
2018-04-23T04:10:20.318Z,16.29
2018-04-23T04:12:54.938Z,16.35
2018-04-23T04:15:31.607Z,16.30
2018-04-23T04:18:17.050Z,16.27
2018-04-23T04:20:45.554Z,16.34
2018-04-23T04:23:14.108Z,16.37
2018-04-23T04:25:44.911Z,16.39
2018-04-23T04:28:13.331Z,16.46
2018-04-23T04:30:41.740Z,16.45
2018-04-23T04:33:10.243Z,16.47
2018-04-23T04:35:41.653Z,16.54
2018-04-23T04:38:10.086Z,16.51
2018-04-23T04:40:38.513Z,16.46
2018-04-23T04:43:06.935Z,16.50
2018-04-23T04:45:35.340Z,16.51
2018-04-23T04:48:03.807Z,16.59
2018-04-23T04:50:32.203Z,16.54
2018-04-23T04:53:00.647Z,16.53
2018-04-23T04:55:29.084Z,16.51
2018-04-23T04:57:59.610Z,16.57
2018-04-23T05:00:28.028Z,16.41
2018-04-23T05:02:56.537Z,16.42
2018-04-23T05:05:24.946Z,16.52
2018-04-23T05:07:55.478Z,16.48
2018-04-23T05:10:23.890Z,16.54
2018-04-23T05:12:52.688Z,16.41
2018-04-23T05:15:21.094Z,16.52
2018-04-23T05:17:49.509Z,16.61
2018-04-23T05:20:19.628Z,16.69
2018-04-23T05:22:50.020Z,16.77
2018-04-23T05:25:18.458Z,16.91
2018-04-23T05:27:46.855Z,17.01
2018-04-23T05:30:15.325Z,17.20
2018-04-23T05:32:45.758Z,17.26
2018-04-23T05:35:14.209Z,17.47
2018-04-23T05:37:42.624Z,17.58
2018-04-23T05:40:11.048Z,17.64
2018-04-23T05:42:43.104Z,17.80
2018-04-23T05:45:17.616Z,17.87
2018-04-23T05:47:48.211Z,18.17
2018-04-23T05:50:16.629Z,18.36
2018-04-23T05:52:49.068Z,18.53
2018-04-23T05:55:17.469Z,18.69
2018-04-23T05:57:45.879Z,18.91
2018-04-23T06:00:14.368Z,19.23
2018-04-23T06:02:42.857Z,19.26
2018-04-23T06:05:11.328Z,19.38
2018-04-23T06:07:39.766Z,19.49
2018-04-23T06:10:08.209Z,19.62
2018-04-23T06:12:38.700Z,19.64
2018-04-23T06:15:07.181Z,19.43
2018-04-23T06:17:35.640Z,19.42
2018-04-23T06:20:05.271Z,19.54
2018-04-23T06:22:33.734Z,19.80
2018-04-23T06:25:02.159Z,19.95
2018-04-23T06:27:30.607Z,20.39
2018-04-23T06:30:00.672Z,20.57
2018-04-23T06:32:30.479Z,20.80
2018-04-23T06:34:59.875Z,21.15
2018-04-23T06:37:30.379Z,21.37
2018-04-23T06:40:00.430Z,21.75
2018-04-23T06:42:28.840Z,21.87
2018-04-23T06:44:59.627Z,22.03
2018-04-23T06:47:28.027Z,22.22
2018-04-23T06:49:58.055Z,22.68
2018-04-23T06:52:26.488Z,22.64
2018-04-23T06:55:00.932Z,22.53
2018-04-23T06:57:29.610Z,22.91
2018-04-23T06:59:58.008Z,23.14
2018-04-23T07:02:26.477Z,23.56
2018-04-23T07:04:56.744Z,24.00
2018-04-23T07:07:25.491Z,24.21
2018-04-23T07:09:55.961Z,24.45
2018-04-23T07:12:24.403Z,24.83
2018-04-23T07:14:52.872Z,24.96
2018-04-23T07:17:21.677Z,25.50
2018-04-23T07:19:52.051Z,25.67
2018-04-23T07:22:20.455Z,26.11
2018-04-23T07:24:48.887Z,26.66
2018-04-23T07:27:19.407Z,26.84
2018-04-23T07:29:47.851Z,27.26
2018-04-23T07:32:19.975Z,26.83
2018-04-23T07:34:48.459Z,27.05
2018-04-23T07:37:16.884Z,27.44
2018-04-23T07:39:45.317Z,27.29
2018-04-23T07:42:13.719Z,27.62
2018-04-23T07:44:43.832Z,28.25
2018-04-23T07:47:13.654Z,27.94
2018-04-23T07:49:42.119Z,27.89
2018-04-23T07:52:11.145Z,28.70
2018-04-23T07:54:39.636Z,29.07
2018-04-23T07:57:08.063Z,28.52
2018-04-23T07:59:36.572Z,29.26
2018-04-23T08:02:12.652Z,29.86
2018-04-23T08:04:42.507Z,29.32
2018-04-23T08:07:13.003Z,28.80
2018-04-23T08:09:42.964Z,27.80
2018-04-23T08:12:11.430Z,26.81
2018-04-23T08:14:39.928Z,26.17
2018-04-23T08:17:09.935Z,26.26
2018-04-23T08:19:38.768Z,26.57
2018-04-23T08:22:07.188Z,26.57
2018-04-23T08:24:35.636Z,26.60
2018-04-23T08:27:04.414Z,26.99
2018-04-23T08:29:32.836Z,27.18
2018-04-23T08:32:01.278Z,27.68
2018-04-23T08:34:29.740Z,27.63
2018-04-23T08:36:58.207Z,28.27
2018-04-23T08:39:28.754Z,29.50
2018-04-23T08:41:57.434Z,29.39
2018-04-23T08:44:27.420Z,29.63
2018-04-23T08:46:55.823Z,30.21
2018-04-23T08:49:24.277Z,30.69
2018-04-23T08:51:52.893Z,31.11
2018-04-23T08:54:21.324Z,30.84
2018-04-23T08:56:51.504Z,31.28
2018-04-23T08:59:19.907Z,31.44
2018-04-23T09:01:48.346Z,31.57
2018-04-23T09:04:18.890Z,31.95
2018-04-23T09:06:47.291Z,32.18
2018-04-23T09:09:17.020Z,31.57
2018-04-23T09:11:47.404Z,31.07
2018-04-23T09:14:15.919Z,30.45
2018-04-23T09:16:44.335Z,30.23
2018-04-23T09:19:13.069Z,30.24
2018-04-23T09:21:41.480Z,30.12
2018-04-23T09:24:11.404Z,29.34
2018-04-23T09:26:39.926Z,29.04
2018-04-23T09:29:08.356Z,29.57
2018-04-23T09:31:38.345Z,30.09
2018-04-23T09:34:08.477Z,30.00
2018-04-23T09:36:38.445Z,29.97
2018-04-23T09:39:06.872Z,29.56
2018-04-23T09:41:35.298Z,28.74
2018-04-23T09:44:03.776Z,27.52
2018-04-23T09:46:32.152Z,27.21
2018-04-23T09:49:02.128Z,27.14
2018-04-23T09:51:30.606Z,27.10
2018-04-23T09:53:59.085Z,26.41
2018-04-23T09:56:29.495Z,25.77
2018-04-23T09:58:57.931Z,25.34
2018-04-23T10:01:30.212Z,25.88
2018-04-23T10:04:04.748Z,26.46
2018-04-23T10:06:34.821Z,27.05
2018-04-23T10:09:03.309Z,28.11
2018-04-23T10:11:31.851Z,27.97
2018-04-23T10:14:04.223Z,27.70
2018-04-23T10:16:32.635Z,27.14
2018-04-23T10:19:01.447Z,26.27
2018-04-23T10:21:31.924Z,26.08
2018-04-23T10:24:00.336Z,25.53
2018-04-23T10:26:28.797Z,25.15
2018-04-23T10:28:57.216Z,25.07
2018-04-23T10:31:25.719Z,24.53
2018-04-23T10:34:00.225Z,24.88
2018-04-23T10:36:31.116Z,24.91
2018-04-23T10:38:59.590Z,25.10
2018-04-23T10:41:31.723Z,24.53
2018-04-23T10:44:02.251Z,24.54
2018-04-23T10:46:30.678Z,24.57
2018-04-23T10:48:59.123Z,24.38
2018-04-23T10:51:27.538Z,24.29
2018-04-23T10:53:56.091Z,24.11
2018-04-23T10:56:24.520Z,24.54
2018-04-23T10:58:56.239Z,24.77
2018-04-23T11:01:24.676Z,25.15
2018-04-23T11:03:55.052Z,24.63
2018-04-23T11:06:27.263Z,24.43
2018-04-23T11:08:57.745Z,24.08
2018-04-23T11:11:26.183Z,23.67
2018-04-23T11:13:54.643Z,23.46
2018-04-23T11:16:25.126Z,23.11
2018-04-23T11:18:53.563Z,22.96
2018-04-23T11:21:22.042Z,22.53
2018-04-23T11:23:50.500Z,22.09
2018-04-23T11:26:18.914Z,22.21
2018-04-23T11:28:48.891Z,22.20
2018-04-23T11:31:17.259Z,22.19
2018-04-23T11:33:47.745Z,22.14
2018-04-23T11:36:16.175Z,22.06
2018-04-23T11:38:46.694Z,21.29
2018-04-23T11:41:17.246Z,21.27
2018-04-23T11:43:47.826Z,21.03
2018-04-23T11:46:20.367Z,20.98
2018-04-23T11:48:48.835Z,20.85
2018-04-23T11:51:19.383Z,20.31
2018-04-23T11:53:49.915Z,20.20
2018-04-23T11:56:18.406Z,19.90
2018-04-23T11:58:46.835Z,19.93
2018-04-23T12:01:15.351Z,19.73
2018-04-23T12:03:47.542Z,19.69
2018-04-23T12:06:15.942Z,19.52
2018-04-23T12:08:44.396Z,19.53
2018-04-23T12:11:12.919Z,19.42
2018-04-23T12:13:41.347Z,19.31
2018-04-23T12:16:11.851Z,19.11
2018-04-23T12:18:41.908Z,19.00
2018-04-23T12:21:10.348Z,19.10
2018-04-23T12:23:38.782Z,19.16
2018-04-23T12:26:07.252Z,19.21
2018-04-23T12:28:35.727Z,18.97
2018-04-23T12:31:04.175Z,18.90
2018-04-23T12:33:32.593Z,19.17
2018-04-23T12:36:03.215Z,19.28
2018-04-23T12:38:33.738Z,19.02
2018-04-23T12:41:02.227Z,18.91
2018-04-23T12:43:32.784Z,18.77
2018-04-23T12:46:01.242Z,18.80
2018-04-23T12:48:31.814Z,18.85
2018-04-23T12:51:02.442Z,18.87
2018-04-23T12:53:30.843Z,19.08
2018-04-23T12:56:03.414Z,19.11
2018-04-23T12:58:31.853Z,19.14
2018-04-23T13:01:00.300Z,19.53
2018-04-23T13:03:32.471Z,19.67
2018-04-23T13:06:02.951Z,19.74
2018-04-23T13:08:32.951Z,19.83
2018-04-23T13:11:03.451Z,19.89
2018-04-23T13:13:33.910Z,19.87
2018-04-23T13:16:02.343Z,19.92
2018-04-23T13:18:30.827Z,19.78
2018-04-23T13:20:59.199Z,19.75
2018-04-23T13:23:27.643Z,19.73
2018-04-23T13:25:57.791Z,19.53
2018-04-23T13:28:26.235Z,19.50
2018-04-23T13:30:54.656Z,19.41
2018-04-23T13:33:29.256Z,18.99
2018-04-23T13:35:59.766Z,18.94
2018-04-23T13:38:28.159Z,18.58
2018-04-23T13:40:56.634Z,18.68
2018-04-23T13:43:27.051Z,18.55
2018-04-23T13:45:55.531Z,18.52
2018-04-23T13:48:24.012Z,18.80
2018-04-23T13:50:59.694Z,18.69
2018-04-23T13:53:28.147Z,18.44
2018-04-23T13:55:56.600Z,18.46
2018-04-23T13:58:27.088Z,18.42
2018-04-23T14:00:57.789Z,18.56
2018-04-23T14:03:28.422Z,18.63
2018-04-23T14:05:56.962Z,18.78
2018-04-23T14:08:25.405Z,18.82
2018-04-23T14:10:55.504Z,18.76
2018-04-23T14:13:23.959Z,18.82
2018-04-23T14:15:52.434Z,18.89
2018-04-23T14:18:20.962Z,18.95
2018-04-23T14:20:49.431Z,19.16
2018-04-23T14:23:17.874Z,19.14
2018-04-23T14:25:48.177Z,19.41
2018-04-23T14:28:16.576Z,19.16
2018-04-23T14:30:45.021Z,19.21
2018-04-23T14:33:13.761Z,19.26
2018-04-23T14:35:47.479Z,19.22
2018-04-23T14:38:17.672Z,19.00
2018-04-23T14:40:47.619Z,19.21
2018-04-23T14:43:16.029Z,19.16
2018-04-23T14:45:44.478Z,19.21
2018-04-23T14:48:13.352Z,19.48
2018-04-23T14:50:42.744Z,19.66
2018-04-23T14:53:11.237Z,19.70
2018-04-23T14:55:39.658Z,19.47
2018-04-23T14:58:11.821Z,19.38
2018-04-23T15:00:43.657Z,19.28
2018-04-23T15:03:12.144Z,19.47
2018-04-23T15:05:40.644Z,19.34
2018-04-23T15:08:09.056Z,19.13
2018-04-23T15:10:38.226Z,19.05
2018-04-23T15:13:06.667Z,18.99
2018-04-23T15:15:35.143Z,18.89
2018-04-23T15:18:03.609Z,19.00
2018-04-23T15:20:32.399Z,19.11
2018-04-23T15:23:00.813Z,18.95
2018-04-23T15:25:31.347Z,18.78
2018-04-23T15:27:59.828Z,18.67
2018-04-23T15:30:28.258Z,18.60
2018-04-23T15:32:58.269Z,18.34
2018-04-23T15:35:26.696Z,18.22
2018-04-23T15:37:57.205Z,18.01
2018-04-23T15:40:29.238Z,17.94
2018-04-23T15:42:57.728Z,17.89
2018-04-23T15:45:26.203Z,17.98
2018-04-23T15:47:54.640Z,18.07
2018-04-23T15:50:25.206Z,18.08
2018-04-23T15:52:53.660Z,18.16
2018-04-23T15:55:22.092Z,18.15
2018-04-23T15:57:50.554Z,18.23
2018-04-23T16:00:19.293Z,18.36
2018-04-23T16:02:47.724Z,18.31
2018-04-23T16:05:16.169Z,18.41
2018-04-23T16:07:44.625Z,18.35
2018-04-23T16:10:13.046Z,18.21
2018-04-23T16:12:41.700Z,18.27
2018-04-23T16:15:10.172Z,18.31
2018-04-23T16:17:38.644Z,18.19
2018-04-23T16:20:09.236Z,18.08
2018-04-23T16:22:38.259Z,17.86
2018-04-23T16:25:08.794Z,17.70
2018-04-23T16:27:39.411Z,17.30
2018-04-23T16:30:09.930Z,17.33
2018-04-23T16:32:39.348Z,17.30
2018-04-23T16:35:07.804Z,17.28
2018-04-23T16:37:36.242Z,17.33
2018-04-23T16:40:05.017Z,17.18
2018-04-23T16:42:33.443Z,17.10
2018-04-23T16:45:01.894Z,17.04
2018-04-23T16:47:30.495Z,16.84
2018-04-23T16:50:01.056Z,16.63
2018-04-23T16:52:29.547Z,16.48
2018-04-23T16:54:58.757Z,16.41
2018-04-23T16:57:29.311Z,16.34
2018-04-23T16:59:59.788Z,16.38
2018-04-23T17:02:30.737Z,16.32
2018-04-23T17:04:59.188Z,16.51
2018-04-23T17:07:29.829Z,16.38
2018-04-23T17:09:58.316Z,16.24
2018-04-23T17:12:26.768Z,16.23
2018-04-23T17:14:55.229Z,16.21
2018-04-23T17:17:25.521Z,16.32
2018-04-23T17:19:54.012Z,16.32
2018-04-23T17:22:22.453Z,16.31
2018-04-23T17:24:50.902Z,16.17
2018-04-23T17:27:19.447Z,16.22
2018-04-23T17:29:50.439Z,16.34
2018-04-23T17:32:18.910Z,16.32
2018-04-23T17:34:49.557Z,16.32
2018-04-23T17:37:20.143Z,16.38
2018-04-23T17:39:50.779Z,16.39
2018-04-23T17:42:19.185Z,16.37
2018-04-23T17:44:51.845Z,16.36
2018-04-23T17:47:20.306Z,16.25
2018-04-23T17:49:48.814Z,16.06
2018-04-23T17:52:17.228Z,16.05
2018-04-23T17:54:45.646Z,16.08
2018-04-23T17:57:16.179Z,16.00
2018-04-23T17:59:46.781Z,16.05
2018-04-23T18:02:17.367Z,16.02
2018-04-23T18:04:45.818Z,15.95
2018-04-23T18:07:14.293Z,15.82
2018-04-23T18:09:42.940Z,15.77
2018-04-23T18:12:11.335Z,15.72
2018-04-23T18:14:41.559Z,15.67
2018-04-23T18:17:10.265Z,15.62
2018-04-23T18:19:38.680Z,15.63
2018-04-23T18:22:09.045Z,15.63
2018-04-23T18:24:37.455Z,15.71
2018-04-23T18:27:05.901Z,15.57
2018-04-23T18:29:34.295Z,15.38
2018-04-23T18:32:05.199Z,15.22
2018-04-23T18:34:33.571Z,15.12
2018-04-23T18:37:01.952Z,15.35
2018-04-23T18:39:30.399Z,15.23
2018-04-23T18:41:58.851Z,15.10
2018-04-23T18:44:27.511Z,15.06
2018-04-23T18:46:58.027Z,15.04
2018-04-23T18:49:26.400Z,15.08
2018-04-23T18:51:56.910Z,15.07
2018-04-23T18:54:25.303Z,15.16
2018-04-23T18:56:56.376Z,15.19
2018-04-23T18:59:24.807Z,15.18
2018-04-23T19:01:53.234Z,15.17
2018-04-23T19:04:23.811Z,15.20
2018-04-23T19:06:52.268Z,15.25
2018-04-23T19:09:20.686Z,15.33
2018-04-23T19:11:49.134Z,15.33
2018-04-23T19:14:17.590Z,15.31
2018-04-23T19:16:46.035Z,15.34
2018-04-23T19:19:14.547Z,15.27
2018-04-23T19:21:42.924Z,15.24
2018-04-23T19:24:13.601Z,15.20
2018-04-23T19:26:42.349Z,15.15
2018-04-23T19:29:10.739Z,15.06
2018-04-23T19:31:39.240Z,15.06
2018-04-23T19:34:07.684Z,15.13
2018-04-23T19:36:36.112Z,15.01
2018-04-23T19:39:05.780Z,15.05
2018-04-23T19:41:36.344Z,15.03
2018-04-23T19:44:04.751Z,15.02
2018-04-23T19:46:35.324Z,15.01
2018-04-23T19:49:03.796Z,14.91
2018-04-23T19:51:32.173Z,14.85
2018-04-23T19:54:00.579Z,14.93
2018-04-23T19:56:29.061Z,14.80
2018-04-23T19:58:59.715Z,14.75
2018-04-23T20:01:28.138Z,14.77
2018-04-23T20:03:58.636Z,14.69
2018-04-23T20:06:27.057Z,14.54
2018-04-23T20:08:55.440Z,14.47
2018-04-23T20:11:25.870Z,14.59
2018-04-23T20:13:56.730Z,14.52
2018-04-23T20:16:25.153Z,14.50
2018-04-23T20:18:55.699Z,14.51
2018-04-23T20:21:24.188Z,14.51
2018-04-23T20:23:54.723Z,14.52
2018-04-23T20:26:23.087Z,14.48
2018-04-23T20:28:53.961Z,14.39
2018-04-23T20:31:22.424Z,14.40
2018-04-23T20:33:50.889Z,14.43
2018-04-23T20:36:19.723Z,14.38
2018-04-23T20:38:48.104Z,14.34
2018-04-23T20:41:16.542Z,14.24
2018-04-23T20:43:47.263Z,14.21
2018-04-23T20:46:15.676Z,14.20
2018-04-23T20:48:46.213Z,14.15
2018-04-23T20:51:16.843Z,14.12
2018-04-23T20:53:45.234Z,14.16
2018-04-23T20:56:13.659Z,14.22
2018-04-23T20:58:42.074Z,14.09
2018-04-23T21:01:10.538Z,14.10
2018-04-23T21:03:38.956Z,13.98
2018-04-23T21:06:07.408Z,14.10
2018-04-23T21:08:35.835Z,14.00
2018-04-23T21:11:06.336Z,13.90
2018-04-23T21:13:34.711Z,13.98
2018-04-23T21:16:03.505Z,13.89
2018-04-23T21:18:31.890Z,13.77
2018-04-23T21:21:00.316Z,13.73
2018-04-23T21:23:28.740Z,13.69
2018-04-23T21:25:57.118Z,13.77
2018-04-23T21:28:27.692Z,13.60
2018-04-23T21:30:56.194Z,13.62
2018-04-23T21:33:24.534Z,13.68
2018-04-23T21:35:55.155Z,13.64
2018-04-23T21:38:23.555Z,13.60
2018-04-23T21:40:54.087Z,13.53
2018-04-23T21:43:24.600Z,13.48
2018-04-23T21:45:52.995Z,13.58
2018-04-23T21:48:21.368Z,13.53
2018-04-23T21:50:51.944Z,13.46
2018-04-23T21:53:20.343Z,13.44
2018-04-23T21:55:50.891Z,13.38
2018-04-23T21:58:19.259Z,13.38
2018-04-23T22:00:47.622Z,13.27
2018-04-23T22:03:18.157Z,13.26
2018-04-23T22:05:46.546Z,13.30
2018-04-23T22:08:14.907Z,13.39
2018-04-23T22:10:43.314Z,13.40
2018-04-23T22:13:11.682Z,13.36
2018-04-23T22:15:40.380Z,13.28
2018-04-23T22:18:08.804Z,13.18
2018-04-23T22:20:37.123Z,13.24
2018-04-23T22:23:05.532Z,13.17
2018-04-23T22:25:34.258Z,13.22
2018-04-23T22:28:04.817Z,13.10
2018-04-23T22:30:35.347Z,12.95
2018-04-23T22:33:03.742Z,12.96
2018-04-23T22:35:33.899Z,12.95
2018-04-23T22:38:02.362Z,13.00
2018-04-23T22:40:30.752Z,13.05
2018-04-23T22:42:59.148Z,12.98
2018-04-23T22:45:29.731Z,12.92
2018-04-23T22:47:58.351Z,12.79
2018-04-23T22:50:26.819Z,12.82
2018-04-23T22:52:57.279Z,12.80
2018-04-23T22:55:25.652Z,12.76
2018-04-23T22:57:56.180Z,12.71
2018-04-23T23:00:24.635Z,12.74
2018-04-23T23:02:53.079Z,12.75
2018-04-23T23:05:21.546Z,12.74
2018-04-23T23:07:50.021Z,12.78
2018-04-23T23:10:18.446Z,12.87
2018-04-23T23:12:48.990Z,12.86
2018-04-23T23:15:19.541Z,12.85
2018-04-23T23:17:47.994Z,12.90
2018-04-23T23:20:18.526Z,12.85
2018-04-23T23:22:47.022Z,12.71
2018-04-23T23:25:15.793Z,12.69
2018-04-23T23:27:44.194Z,12.70
2018-04-23T23:30:14.807Z,12.64
2018-04-23T23:32:43.591Z,12.52
2018-04-23T23:35:12.001Z,12.55
2018-04-23T23:37:42.495Z,12.49
2018-04-23T23:40:13.083Z,12.56
2018-04-23T23:42:41.535Z,12.50
2018-04-23T23:45:10.006Z,12.48
2018-04-23T23:47:38.409Z,12.52
2018-04-23T23:50:07.099Z,12.44
2018-04-23T23:52:35.579Z,12.40
2018-04-23T23:55:04.004Z,12.46
2018-04-23T23:57:32.515Z,12.43
